Los Pinas, Colorado
Current Conditions -  °F | °C
As of 10:52 PM on Thursday 30 Oct 2014 (Local Time) from KALS Reporting Station
Clear Clear  
Wind Chill: 27°   Ceiling: Unl
Heat Index: 34°   Visibility: 10mi
Dew Point: 18°   Wind: 8mph
Humidity: 52%   Direction: 160°SSE
Pressure: 30.39"   Gusts: NA
Location:  37.1816°N, 106.262°W
Report Text: KALS 310452Z AUTO 16007KT 10SM CLR 01/M08 A3039 RMK AO2 SLP262 T00111078
Loading
Personal Weather Stations






























Interactive Weather Map
Tropical Storm Tracking
New forecast layout! Learn more

10-Day Weather Forecast

Advertisements
Track Severe Weather on mobile